Aeroporto :
LOGIN :

Iscrizione | Disclaimer

   EN    FR    IT 

 










Sommario :    VFR   VFR Marginale   IFR   IFR Intensivo   IFR Molto Intensivo
Visibilità : 
Base nubi : 
>= 8 km
>= 3000ft
5 / 8 km
1000 / 3000 ft
1500m / 5 km
500 / 1000 ft
800 / 1500m
200 / 500 ft
< 800m
< 200 ft
Simboli :   Temporali  Nebbia  Neve Forte  Precipitazioni Forti  Vento > 20 kt
SIGMETs :   Varie  Temporali  Ghiacco  Turbolenza  Onda orograficha  Ceneri Vulcaniche






- Altitudine del aeroporto : 1830 ft


EBLB - Butgenbach Elsenborn

ULTIMO METAR :
  • 210925Z AUTO 26006KT 9999 SCT021/// 21/16 Q1011 WHT

METARs OBSOLETI :
  • 210921Z AUTO 27005KT 9999 SCT021/// 21/16 Q1011 WHT
  • 210855Z AUTO 28005KT 9999 FEW013/// SCT032/// 21/17 Q1010 BLU
  • 210825Z AUTO 26006KT 9999 BKN011/// 20/17 Q1010 GRN
  • 210755Z AUTO 28005KT 9999 BKN010/// 20/17 Q1010 GRN
  • 210742Z AUTO 27006KT 9999 SCT013/// 20/17 Q1010 GRN
  • 210725Z AUTO 27004KT 9999 FEW011/// 20/17 Q1009 BLU
  • 210655Z AUTO 27003KT 9999 BKN085/// 19/18 Q1009 BLU
  • 210625Z AUTO VRB01KT 9999 FEW062/// SCT095/// BKN120/// 19/17 Q1009 BLU
  • 210555Z AUTO VRB01KT 9999 -RA BKN073/// 18/17 Q1009 BLU
  • 210525Z AUTO VRB02KT 9999 -RA BKN100/// 17/16 Q1009 BLU
  • 210455Z AUTO 21003KT 9999 FEW053/// BKN089/// 17/16 Q1009 BLU
  • 210425Z AUTO 21005KT 9999 -RA OVC053/// 17/16 Q1009 BLU

Previsioni scadute.



MetMap, La meteo Aeronautica in un colpo d'occhio ! - Copyright ORBIFLY Dicembre 2007 - Disclaimer

ORBIFLY MET'MAP TEAM :

Programmazione e sviluppo : Alexandra Zaïnal
Concezione : Baudouin d'Aumeries
Supporto tecnico e logistico : Manuel Goepfert
Aiuto : Marc-Olivier Méhu
Aiuto per la traduzione : Arnaldo La Scala




FONTI E CREDITI :

   NOAA